createdAt,value
2023-01-17T00:01:11.369Z,11.30
2023-01-17T00:04:01.930Z,11.60
2023-01-17T00:06:52.169Z,13.13
2023-01-17T00:09:42.715Z,13.57
2023-01-17T00:12:14.543Z,13.88
2023-01-17T00:14:47.612Z,15.05
2023-01-17T00:17:19.467Z,15.13
2023-01-17T00:20:10.206Z,16.05
2023-01-17T00:23:03.702Z,17.20
2023-01-17T00:25:57.193Z,16.48
2023-01-17T00:28:31.344Z,17.35
2023-01-17T00:31:04.255Z,18.27
2023-01-17T00:33:36.858Z,17.42
2023-01-17T00:36:09.999Z,18.45
2023-01-17T00:38:41.814Z,18.52
2023-01-17T00:41:14.878Z,18.45
2023-01-17T00:44:05.478Z,18.23
2023-01-17T00:46:55.613Z,18.05
2023-01-17T00:49:45.851Z,18.95
2023-01-17T00:52:36.464Z,17.33
2023-01-17T00:55:27.153Z,20.50
2023-01-17T00:58:17.561Z,19.58
2023-01-17T01:01:07.967Z,21.50
2023-01-17T01:03:58.463Z,21.70
2023-01-17T01:06:48.828Z,27.88
2023-01-17T01:09:39.204Z,27.38
2023-01-17T01:12:29.625Z,27.08
2023-01-17T01:15:19.895Z,27.85
2023-01-17T01:18:10.359Z,27.40
2023-01-17T01:21:01.103Z,29.05
2023-01-17T01:23:51.371Z,30.55
2023-01-17T01:26:41.759Z,30.48
2023-01-17T01:29:32.318Z,30.38
2023-01-17T01:32:22.829Z,32.45
2023-01-17T01:34:54.615Z,30.75
2023-01-17T01:37:26.482Z,31.63
2023-01-17T01:39:58.300Z,35.00
2023-01-17T01:42:30.228Z,38.30
2023-01-17T01:45:15.539Z,38.13
2023-01-17T01:47:48.738Z,37.63
2023-01-17T01:50:21.556Z,36.00
2023-01-17T01:52:57.565Z,36.30
2023-01-17T01:55:41.352Z,35.22
2023-01-17T01:58:18.722Z,34.95
2023-01-17T02:00:51.284Z,34.17
2023-01-17T02:03:30.868Z,33.00
2023-01-17T02:06:32.806Z,33.20
2023-01-17T02:09:09.057Z,32.53
2023-01-17T02:11:41.925Z,35.20
2023-01-17T02:14:18.244Z,34.30
2023-01-17T02:17:08.981Z,34.50
2023-01-17T02:19:43.849Z,25.95
2023-01-17T02:22:42.941Z,34.45
2023-01-17T02:25:51.913Z,33.38
2023-01-17T02:28:38.552Z,33.55
2023-01-17T02:31:40.604Z,33.53
2023-01-17T02:34:35.347Z,32.83
2023-01-17T02:37:52.759Z,35.17
2023-01-17T02:40:38.045Z,32.70
2023-01-17T02:43:14.347Z,32.83
2023-01-17T02:45:46.414Z,34.40
2023-01-17T02:48:21.655Z,36.45
2023-01-17T02:51:08.299Z,34.63
2023-01-17T02:53:48.973Z,34.78
2023-01-17T02:56:45.716Z,26.93
2023-01-17T02:59:39.546Z,34.20
2023-01-17T03:02:27.707Z,35.63
2023-01-17T03:05:12.541Z,33.70
2023-01-17T03:07:44.871Z,34.15
2023-01-17T03:10:18.920Z,32.58
2023-01-17T03:12:56.664Z,32.97
2023-01-17T03:15:28.467Z,32.67
2023-01-17T03:18:07.164Z,34.05
2023-01-17T03:20:39.122Z,30.95
2023-01-17T03:23:11.052Z,30.38
2023-01-17T03:25:42.938Z,31.75
2023-01-17T03:28:15.273Z,31.92
2023-01-17T03:30:47.229Z,29.52
2023-01-17T03:33:19.145Z,30.35
2023-01-17T03:35:51.122Z,29.40
2023-01-17T03:38:23.067Z,26.85
2023-01-17T03:40:55.250Z,29.60
2023-01-17T03:43:29.776Z,29.48
2023-01-17T03:46:03.333Z,28.88
2023-01-17T03:48:35.296Z,22.48
2023-01-17T03:51:07.151Z,23.90
2023-01-17T03:53:39.050Z,24.55
2023-01-17T03:56:10.919Z,23.20
2023-01-17T03:58:42.974Z,24.13
2023-01-17T04:01:14.982Z,23.50
2023-01-17T04:03:46.906Z,23.27
2023-01-17T04:06:18.803Z,23.23
2023-01-17T04:08:50.814Z,23.67
2023-01-17T04:11:22.655Z,24.13
2023-01-17T04:13:55.340Z,25.35
2023-01-17T04:16:30.722Z,25.42
2023-01-17T04:19:02.608Z,25.30
2023-01-17T04:21:34.402Z,24.52
2023-01-17T04:24:06.687Z,24.70
2023-01-17T04:26:38.538Z,25.50
2023-01-17T04:29:10.487Z,25.20
2023-01-17T04:31:42.423Z,23.42
2023-01-17T04:34:14.765Z,22.00
2023-01-17T04:36:46.611Z,21.88
2023-01-17T04:39:18.528Z,21.13
2023-01-17T04:41:50.402Z,19.85
2023-01-17T04:44:22.279Z,20.38
2023-01-17T04:46:54.185Z,18.85
2023-01-17T04:49:26.191Z,18.02
2023-01-17T04:51:58.041Z,17.83
2023-01-17T04:54:29.937Z,17.88
2023-01-17T04:57:01.877Z,17.45
2023-01-17T04:59:33.743Z,17.60
2023-01-17T05:02:05.626Z,17.45
2023-01-17T05:04:37.971Z,17.10
2023-01-17T05:07:09.983Z,17.73
2023-01-17T05:09:43.672Z,17.92
2023-01-17T05:12:15.568Z,17.55
2023-01-17T05:14:47.444Z,16.65
2023-01-17T05:17:19.358Z,17.50
2023-01-17T05:19:51.805Z,15.75
2023-01-17T05:22:23.652Z,16.20
2023-01-17T05:24:55.475Z,15.70
2023-01-17T05:27:27.391Z,16.40
2023-01-17T05:29:59.235Z,15.93
2023-01-17T05:32:31.149Z,15.00
2023-01-17T05:35:06.167Z,14.73
2023-01-17T05:37:38.022Z,15.27
2023-01-17T05:40:10.609Z,13.93
2023-01-17T05:42:46.784Z,15.25
2023-01-17T05:45:20.494Z,15.35
2023-01-17T05:47:54.236Z,14.85
2023-01-17T05:50:31.792Z,14.88
2023-01-17T05:53:09.551Z,15.55
2023-01-17T05:55:42.069Z,15.10
2023-01-17T05:58:17.572Z,14.05
2023-01-17T06:00:49.710Z,13.63
2023-01-17T06:03:21.684Z,14.85
2023-01-17T06:05:53.589Z,15.38
2023-01-17T06:08:25.457Z,14.60
2023-01-17T06:10:59.491Z,13.35
2023-01-17T06:13:31.441Z,14.00
2023-01-17T06:16:04.327Z,14.52
2023-01-17T06:18:36.367Z,14.85
2023-01-17T06:21:08.238Z,14.25
2023-01-17T06:23:40.060Z,15.65
2023-01-17T06:26:12.071Z,14.65
2023-01-17T06:28:44.217Z,15.85
2023-01-17T06:31:16.076Z,15.60
2023-01-17T06:33:47.925Z,21.60
2023-01-17T06:36:19.842Z,19.45
2023-01-17T06:38:51.784Z,16.05
2023-01-17T06:41:23.922Z,15.77
2023-01-17T06:43:56.418Z,15.75
2023-01-17T06:46:28.500Z,15.13
2023-01-17T06:49:00.571Z,15.43
2023-01-17T06:51:32.516Z,15.70
2023-01-17T06:54:04.463Z,15.05
2023-01-17T06:56:37.036Z,14.30
2023-01-17T06:59:08.909Z,13.18
2023-01-17T07:01:41.608Z,12.10
2023-01-17T07:04:13.591Z,12.48
2023-01-17T07:06:45.473Z,12.48
2023-01-17T07:09:17.455Z,11.73
2023-01-17T07:11:49.402Z,11.18
2023-01-17T07:14:21.236Z,11.43
2023-01-17T07:16:53.059Z,11.35
2023-01-17T07:19:25.299Z,12.05
2023-01-17T07:21:57.263Z,12.18
2023-01-17T07:24:30.110Z,11.43
2023-01-17T07:27:02.120Z,11.60
2023-01-17T07:29:35.645Z,12.50
2023-01-17T07:32:08.919Z,13.13
2023-01-17T07:34:40.795Z,13.52
2023-01-17T07:37:15.030Z,14.13
2023-01-17T07:39:47.265Z,15.02
2023-01-17T07:42:19.119Z,16.75
2023-01-17T07:44:51.004Z,14.02
2023-01-17T07:47:24.793Z,15.10
2023-01-17T07:49:56.643Z,15.45
2023-01-17T07:52:28.834Z,14.75
2023-01-17T07:55:00.782Z,16.83
2023-01-17T07:57:33.165Z,16.77
2023-01-17T08:00:05.733Z,16.52
2023-01-17T08:02:44.153Z,19.60
2023-01-17T08:05:16.604Z,15.65
2023-01-17T08:07:48.543Z,15.82
2023-01-17T08:10:20.980Z,14.52
2023-01-17T08:12:52.948Z,14.23
2023-01-17T08:15:26.635Z,14.63
2023-01-17T08:17:58.720Z,14.35
2023-01-17T08:20:30.652Z,15.15
2023-01-17T08:23:02.550Z,13.15
2023-01-17T08:25:35.371Z,13.60
2023-01-17T08:28:07.426Z,13.38
2023-01-17T08:30:39.570Z,14.45
2023-01-17T08:33:11.496Z,12.93
2023-01-17T08:35:55.857Z,11.73
2023-01-17T08:38:27.822Z,11.70
2023-01-17T08:41:02.772Z,12.10
2023-01-17T08:43:34.814Z,11.40
2023-01-17T08:46:06.777Z,8.68
2023-01-17T08:48:38.591Z,8.82
2023-01-17T08:51:11.539Z,9.40
2023-01-17T08:53:43.508Z,10.18
2023-01-17T08:56:15.598Z,5.20
2023-01-17T08:58:47.774Z,4.00
2023-01-17T09:01:19.971Z,3.33
2023-01-17T09:03:51.967Z,3.35
2023-01-17T09:06:25.211Z,3.25
2023-01-17T09:08:57.325Z,3.42
2023-01-17T09:11:29.618Z,3.80
2023-01-17T09:14:02.058Z,3.40
2023-01-17T09:16:34.067Z,6.45
2023-01-17T09:19:06.127Z,6.78
2023-01-17T09:21:38.064Z,5.22
2023-01-17T09:24:09.937Z,6.70
2023-01-17T09:26:41.796Z,3.40
2023-01-17T09:29:17.772Z,5.07
2023-01-17T09:31:49.658Z,13.65
2023-01-17T09:34:23.638Z,4.30
2023-01-17T09:36:57.006Z,4.40
2023-01-17T09:39:28.864Z,3.15
2023-01-17T09:42:06.989Z,2.95
2023-01-17T09:44:53.037Z,3.35
2023-01-17T09:47:44.699Z,3.85
2023-01-17T09:50:31.938Z,3.08
2023-01-17T09:53:14.908Z,2.63
2023-01-17T09:56:04.617Z,2.63
2023-01-17T09:58:39.488Z,3.03
2023-01-17T10:01:54.056Z,3.50
2023-01-17T10:04:49.064Z,3.22
2023-01-17T10:07:38.872Z,3.67
2023-01-17T10:10:27.382Z,5.05
2023-01-17T10:13:02.240Z,6.07
2023-01-17T10:15:49.075Z,3.75
2023-01-17T10:19:04.501Z,3.60
2023-01-17T10:21:51.891Z,2.33
2023-01-17T10:24:51.968Z,3.03
2023-01-17T10:27:34.538Z,3.15
2023-01-17T10:30:25.429Z,4.47
2023-01-17T10:33:02.008Z,2.83
2023-01-17T10:35:38.827Z,3.40
2023-01-17T10:38:12.858Z,3.17
2023-01-17T10:40:54.854Z,3.20
2023-01-17T10:43:54.470Z,3.20
2023-01-17T10:46:32.631Z,2.50
2023-01-17T10:49:04.724Z,2.75
2023-01-17T10:52:00.082Z,2.40
2023-01-17T10:54:41.016Z,2.13
2023-01-17T10:57:25.363Z,2.22
2023-01-17T11:00:01.291Z,2.20
2023-01-17T11:02:39.961Z,2.97
2023-01-17T11:05:21.553Z,2.97
2023-01-17T11:07:59.249Z,2.60
2023-01-17T11:10:36.771Z,1.95
2023-01-17T11:13:35.573Z,2.47
2023-01-17T11:16:19.545Z,1.80
2023-01-17T11:19:13.165Z,1.90
2023-01-17T11:21:54.865Z,1.90
2023-01-17T11:24:33.624Z,2.17
2023-01-17T11:27:06.855Z,1.73
2023-01-17T11:29:40.463Z,2.00
2023-01-17T11:32:21.597Z,2.30
2023-01-17T11:35:30.491Z,2.63
2023-01-17T11:38:02.395Z,2.13
2023-01-17T11:40:44.011Z,1.88
2023-01-17T11:46:04.669Z,2.17
2023-01-17T11:48:38.963Z,2.00
2023-01-17T11:51:39.031Z,2.30
2023-01-17T11:54:38.455Z,1.50
2023-01-17T11:57:29.688Z,1.90
2023-01-17T12:00:26.394Z,1.88
2023-01-17T12:03:10.224Z,2.65
2023-01-17T12:05:57.419Z,2.20
2023-01-17T12:09:07.728Z,1.48
2023-01-17T12:12:08.305Z,1.95
2023-01-17T12:15:09.494Z,2.38
2023-01-17T12:17:50.223Z,1.67
2023-01-17T12:20:31.833Z,1.80
2023-01-17T12:25:57.852Z,1.77
2023-01-17T12:29:01.311Z,1.83
2023-01-17T12:31:39.354Z,2.00
2023-01-17T12:34:23.273Z,57.15
2023-01-17T12:37:29.607Z,12.45
2023-01-17T12:40:15.392Z,56.08
2023-01-17T12:42:56.903Z,2.05
2023-01-17T12:45:45.590Z,1.73
2023-01-17T12:48:20.092Z,3.00
2023-01-17T12:51:08.177Z,2.10
2023-01-17T12:54:24.199Z,1.90
2023-01-17T12:57:06.272Z,1.70
2023-01-17T13:00:05.742Z,2.53
2023-01-17T13:02:58.278Z,2.00
2023-01-17T13:21:53.258Z,2.00
2023-01-17T13:24:42.339Z,1.75
2023-01-17T13:27:30.451Z,2.10
2023-01-17T13:30:31.936Z,2.92
2023-01-17T13:33:15.486Z,2.63
2023-01-17T13:36:28.458Z,2.90
2023-01-17T13:39:51.609Z,3.17
2023-01-17T13:42:53.758Z,4.03
2023-01-17T13:45:35.426Z,3.58
2023-01-17T13:48:31.945Z,3.90
2023-01-17T13:51:11.486Z,4.38
2023-01-17T13:53:43.341Z,4.60
2023-01-17T13:56:26.016Z,5.68
2023-01-17T13:59:03.712Z,5.00
2023-01-17T14:01:38.511Z,5.28
2023-01-17T14:04:12.244Z,5.55
2023-01-17T14:06:52.941Z,5.95
2023-01-17T14:09:29.281Z,6.07
2023-01-17T14:12:07.064Z,6.07
2023-01-17T14:14:42.034Z,4.47
2023-01-17T14:17:25.772Z,4.00
2023-01-17T14:20:19.037Z,4.88
2023-01-17T14:22:58.159Z,5.38
2023-01-17T14:25:38.026Z,5.25
2023-01-17T14:28:31.724Z,4.70
2023-01-17T14:31:09.961Z,4.45
2023-01-17T14:33:41.937Z,5.55
2023-01-17T14:36:25.016Z,4.30
2023-01-17T14:38:56.941Z,4.03
2023-01-17T14:41:30.048Z,2.95
2023-01-17T14:44:03.710Z,2.83
2023-01-17T14:46:36.109Z,3.70
2023-01-17T14:49:25.564Z,4.90
2023-01-17T14:52:02.004Z,5.93
2023-01-17T14:54:34.024Z,5.68
2023-01-17T14:57:16.268Z,5.30
2023-01-17T14:59:48.135Z,5.95
2023-01-17T15:02:20.178Z,9.30
2023-01-17T15:04:55.471Z,12.82
2023-01-17T15:07:28.847Z,24.15
2023-01-17T15:10:00.894Z,6.65
2023-01-17T15:12:36.737Z,7.55
2023-01-17T15:15:30.430Z,7.22
2023-01-17T15:18:14.493Z,6.68
2023-01-17T15:21:01.952Z,5.40
2023-01-17T15:23:44.326Z,6.25
2023-01-17T15:26:18.509Z,6.32
2023-01-17T15:28:51.937Z,5.70
2023-01-17T15:31:39.223Z,7.93
2023-01-17T15:34:32.755Z,7.15
2023-01-17T15:37:10.564Z,8.25
2023-01-17T15:39:42.487Z,6.28
2023-01-17T15:42:25.573Z,9.13
2023-01-17T15:45:04.161Z,8.40
2023-01-17T15:47:41.596Z,5.25
2023-01-17T15:50:24.607Z,6.07
2023-01-17T15:53:00.443Z,6.88
2023-01-17T15:55:38.352Z,7.25
2023-01-17T15:58:26.708Z,6.40
2023-01-17T16:00:58.969Z,6.80
2023-01-17T16:03:31.700Z,6.38
2023-01-17T16:06:23.741Z,6.30
2023-01-17T16:08:55.745Z,6.90
2023-01-17T16:11:27.865Z,6.38
2023-01-17T16:13:59.758Z,9.15
2023-01-17T16:16:31.801Z,12.38
2023-01-17T16:19:03.836Z,15.82
2023-01-17T16:21:35.701Z,9.55
2023-01-17T16:24:10.781Z,7.10
2023-01-17T16:26:42.762Z,7.85
2023-01-17T16:29:14.688Z,8.40
2023-01-17T16:31:46.560Z,6.70
2023-01-17T16:34:18.599Z,7.63
2023-01-17T16:36:54.550Z,7.72
2023-01-17T16:39:27.402Z,11.35
2023-01-17T16:42:02.890Z,8.77
2023-01-17T16:44:37.472Z,8.88
2023-01-17T16:47:09.450Z,23.75
2023-01-17T16:49:41.371Z,9.73
2023-01-17T16:52:13.265Z,9.38
2023-01-17T16:54:45.142Z,10.30
2023-01-17T16:57:17.082Z,8.27
2023-01-17T16:59:50.961Z,8.10
2023-01-17T17:02:23.505Z,7.45
2023-01-17T17:04:55.471Z,9.23
2023-01-17T17:07:27.429Z,11.20
2023-01-17T17:09:59.364Z,42.90
2023-01-17T17:12:32.431Z,18.75
2023-01-17T17:15:04.676Z,11.38
2023-01-17T17:17:42.030Z,7.25
2023-01-17T17:20:15.518Z,7.82
2023-01-17T17:22:50.940Z,7.65
2023-01-17T17:25:22.807Z,9.98
2023-01-17T17:27:54.863Z,7.65
2023-01-17T17:30:27.330Z,5.43
2023-01-17T17:32:59.286Z,8.02
2023-01-17T17:35:34.965Z,6.28
2023-01-17T17:38:07.061Z,7.63
2023-01-17T17:40:39.073Z,6.88
2023-01-17T17:43:11.041Z,6.70
2023-01-17T17:45:42.954Z,5.18
2023-01-17T17:48:14.851Z,5.65
2023-01-17T17:50:58.828Z,4.43
2023-01-17T17:53:33.183Z,5.90
2023-01-17T17:56:07.093Z,6.28
2023-01-17T17:58:40.207Z,8.88
2023-01-17T18:01:12.173Z,6.75
2023-01-17T18:03:44.246Z,4.75
2023-01-17T18:06:17.515Z,6.32
2023-01-17T18:08:52.221Z,38.45
2023-01-17T18:11:26.889Z,21.67
2023-01-17T18:14:02.149Z,20.45
2023-01-17T18:16:37.647Z,15.48
2023-01-17T18:19:19.651Z,8.10
2023-01-17T18:21:52.327Z,5.22
2023-01-17T18:24:25.425Z,4.43
2023-01-17T18:26:59.157Z,4.47
2023-01-17T18:29:31.809Z,4.10
2023-01-17T18:32:05.455Z,4.90
2023-01-17T18:34:43.514Z,5.32
2023-01-17T18:37:18.922Z,5.65
2023-01-17T18:39:50.958Z,6.85
2023-01-17T18:42:29.120Z,6.88
2023-01-17T18:45:28.084Z,7.63
2023-01-17T18:48:02.717Z,7.80
2023-01-17T18:50:35.534Z,9.05
2023-01-17T18:53:08.824Z,11.30
2023-01-17T18:55:40.920Z,9.82
2023-01-17T18:58:12.828Z,8.30
2023-01-17T19:00:45.865Z,8.90
2023-01-17T19:03:20.452Z,9.00
2023-01-17T19:05:52.459Z,8.32
2023-01-17T19:08:25.608Z,7.85
2023-01-17T19:11:00.209Z,6.50
2023-01-17T19:13:33.988Z,11.57
2023-01-17T19:16:09.635Z,10.10
2023-01-17T19:18:42.858Z,20.00
2023-01-17T19:21:18.886Z,8.80
2023-01-17T19:23:51.978Z,8.77
2023-01-17T19:26:28.654Z,9.15
2023-01-17T19:29:04.070Z,9.07
2023-01-17T19:31:47.431Z,11.20
2023-01-17T19:34:19.565Z,8.93
2023-01-17T19:36:53.154Z,9.35
2023-01-17T19:39:28.282Z,8.32
2023-01-17T19:42:00.168Z,9.77
2023-01-17T19:44:33.257Z,9.23
2023-01-17T19:47:05.579Z,8.02
2023-01-17T19:49:40.175Z,18.48
2023-01-17T19:52:12.943Z,14.25
2023-01-17T19:54:44.901Z,14.85
2023-01-17T19:57:24.475Z,16.08
2023-01-17T19:59:56.407Z,16.17
2023-01-17T20:02:29.065Z,12.40
2023-01-17T20:05:04.391Z,14.02
2023-01-17T20:07:37.180Z,13.20
2023-01-17T20:10:11.571Z,14.73
2023-01-17T20:12:44.335Z,24.50
2023-01-17T20:15:18.553Z,26.65
2023-01-17T20:17:51.169Z,28.05
2023-01-17T20:20:24.038Z,28.00
2023-01-17T20:22:57.548Z,18.67
2023-01-17T20:25:31.062Z,32.90
2023-01-17T20:28:05.799Z,24.75
2023-01-17T20:30:37.898Z,22.33
2023-01-17T20:33:16.556Z,18.80
2023-01-17T20:36:04.879Z,23.40
2023-01-17T20:38:44.255Z,20.85
2023-01-17T20:41:19.940Z,20.60
2023-01-17T20:43:55.331Z,47.00
2023-01-17T20:46:32.018Z,18.67
2023-01-17T20:49:05.810Z,23.90
2023-01-17T20:51:38.817Z,27.17
2023-01-17T20:54:17.560Z,16.45
2023-01-17T20:56:50.107Z,15.27
2023-01-17T20:59:25.147Z,32.00
2023-01-17T21:01:57.129Z,16.73
2023-01-17T21:04:54.489Z,15.10
2023-01-17T21:07:26.493Z,16.77
2023-01-17T21:09:58.353Z,20.55
2023-01-17T21:12:31.759Z,17.05
2023-01-17T21:15:03.915Z,12.98
2023-01-17T21:17:40.473Z,12.40
2023-01-17T21:20:13.891Z,18.65
2023-01-17T21:22:46.013Z,18.38
2023-01-17T21:25:19.501Z,14.40
2023-01-17T21:27:52.688Z,12.57
2023-01-17T21:30:29.131Z,12.13
2023-01-17T21:33:01.209Z,11.45
2023-01-17T21:35:33.192Z,8.38
2023-01-17T21:38:05.457Z,9.93
2023-01-17T21:40:37.326Z,10.98
2023-01-17T21:43:09.910Z,10.57
2023-01-17T21:45:42.366Z,12.55
2023-01-17T21:48:20.066Z,12.48
2023-01-17T21:50:52.640Z,12.60
2023-01-17T21:53:24.617Z,12.38
2023-01-17T21:56:20.499Z,15.60
2023-01-17T21:58:59.031Z,12.80
2023-01-17T22:01:34.642Z,12.02
2023-01-17T22:04:06.708Z,12.88
2023-01-17T22:06:39.704Z,12.40
2023-01-17T22:09:11.559Z,12.77
2023-01-17T22:11:43.422Z,12.50
2023-01-17T22:14:15.899Z,15.38
2023-01-17T22:16:50.320Z,18.10
2023-01-17T22:19:22.551Z,23.85
2023-01-17T22:21:54.547Z,24.15
2023-01-17T22:24:27.017Z,25.92
2023-01-17T22:26:58.856Z,17.40
2023-01-17T22:29:32.441Z,16.60
2023-01-17T22:32:04.639Z,16.42
2023-01-17T22:34:36.488Z,17.77
2023-01-17T22:37:10.232Z,22.40
2023-01-17T22:39:42.229Z,15.45
2023-01-17T22:42:15.154Z,14.65
2023-01-17T22:44:47.924Z,14.35
2023-01-17T22:47:19.759Z,15.00
2023-01-17T22:49:51.668Z,14.13
2023-01-17T22:52:25.641Z,13.82
2023-01-17T22:54:57.690Z,13.65
2023-01-17T22:57:29.597Z,14.68
2023-01-17T23:00:01.523Z,14.88
2023-01-17T23:02:33.518Z,14.65
2023-01-17T23:05:05.657Z,15.70
2023-01-17T23:07:43.856Z,15.45
2023-01-17T23:10:36.122Z,15.15
2023-01-17T23:13:10.939Z,16.15
2023-01-17T23:16:01.432Z,16.08
2023-01-17T23:18:52.011Z,15.32
2023-01-17T23:21:43.817Z,15.45
2023-01-17T23:29:39.167Z,13.82
2023-01-17T23:32:11.002Z,14.25
2023-01-17T23:34:42.875Z,14.20
2023-01-17T23:37:15.272Z,14.27
2023-01-17T23:39:47.337Z,14.23
2023-01-17T23:42:37.758Z,14.77
2023-01-17T23:45:10.286Z,14.60
2023-01-17T23:47:44.915Z,18.33
2023-01-17T23:50:16.879Z,26.20
2023-01-17T23:52:48.743Z,17.13
2023-01-17T23:55:20.592Z,14.43
2023-01-17T23:57:52.803Z,15.77
